Yreka, CA (96097)

10:43 AM PDT on October 25, 2014 (GMT -0700)
RAWS BRAZIE RANCH CA US | Change Station
CLOSE
Current Station
Personal Weather Station
Location: Yreka, CA
Elevation: 3089 ft
Nearby Weather Stations

Elev 3089 ft 41.68 °N, 122.60 °W | Updated 49 minutes ago

Partly Cloudy
Partly Cloudy
60 °F
Feels Like 60 °F
N
13
Wind Variable Wind from SSE
Gusts 40.0 mph

Today
High -- | Low -- °F
--% Chance of Precip.
Yesterday
High -- | Low -- °F
Precip. -- in
7:34 AM 6:14 PM
Waxing Crescent, 4% visible
Pressure 29.69 in
Visibility 10.0 miles
Clouds Clear
Dew Point 40 °F
Humidity 47%
Rainfall 0.05 in
Snow Depth Not available.
UV 2 out of 12
Pollen .40 out of 12
Air Quality Not available.
Flu Activity Sporadic
METAR KSIY 251653Z AUTO 17027G36KT 10SM CLR 14/06 A2969 RMK AO2 PK WND 17036/1652 SLP054 T01440056 $

More Conditions Fewer Conditions

Pressure 29.69 in
Visibility 10.0 miles
Clouds Clear
Dew Point 40 °F
Humidity 47%
Rainfall 0.05 in
Snow Depth Not available.
UV 2 out of 12
Pollen .40 out of 12
Air Quality Not available.
Flu Activity Sporadic
METAR KSIY 251653Z AUTO 17027G36KT 10SM CLR 14/06 A2969 RMK AO2 PK WND 17036/1652 SLP054 T01440056 $

More Conditions Fewer Conditions

10-Day Weather Forecast

Almanac

Astronomy

Oct. 25, 2014 Rise Set
Actual Time 7:34 AM PDT 6:14 PM PDT
Civil Twilight 7:05 AM PDT 6:42 PM PDT
Nautical Twilight 6:33 AM PDT 7:15 PM PDT
Astronomical Twilight 6:01 AM PDT 7:47 PM PDT
Moon 9:19 AM PDT 7:40 PM PDT
Length of Visible Light 11h 36m
Length of Day
10h 39m
Tomorrow will be 2m 35s shorter.
Waxing Crescent, 4% of the Moon is Illuminated
Today
Waxing Crescent
Oct 30
First Quarter
Nov 6
Full
Nov 14
Last Quarter
Nov 22
New

Today's Extremes

State Highs State Lows

Community

WunderPhotos

Upload Photos

1,764,919 photos uploaded!

Nearby

Snow Depth

Station Depth Elevation
Adin Mountain 0 in 6200 ft
Independence Camp 0 in 7000 ft
Squaw Valley 0 in 8200 ft
Tahoe City Cross 0 in 6750 ft
Rubicon #2 1 in 7500 ft

Earthquake Activity

City Distance Mag. Time & Date
No recent earthquake activity has been reported nearby.
Minimum magnitude displayed is 2.5.

Coastal Water Temperatures

Place Temperature
No Stations Reporting

Nearby Weather Stations